Latest Coastal Weather Observations for Pirlangimpi (Garden Point)

IDD60701

Issued at 7:05 am CST Tuesday 2 September 2014 (issued every 10 minutes, with the page automatically refreshed every 10 minutes)

About coastal observations | Map of coastal stations | Coastal observations for NT | Marine services | Other Formats
Station Details ID: 014142 Name: PIRLANGIMPI AIRPORT Lat: -11.40 Lon: 130.42 Height: 18.3 m
Data from the previous 72 hours. | See also: Recent months at Pirlangimpi (Garden Point)
Date/Time
CST
Temp

°C
Wind Pressure Rain
since 9am
mm
Weather Cloud Vis
km
Sea
Height
m
Swell
Dir
 
Speed
knots
Gust
knots
hPa Trend Height
m
Period
s
Dir
02/07:00am 17.9 ESE 0 0 1015.1 - 0.0 - - - - - - -
02/06:30am 18.2 CALM 0 1 1014.8 - 0.0 - - - - - - -
02/06:00am 18.3 E 2 4 1014.7 - 0.0 - - - - - - -
02/05:30am 18.1 ENE 2 2 1014.3 - 0.0 - - - - - - -
02/05:00am 18.6 CALM 0 0 1014.1 - 0.0 - - - - - - -
02/04:30am 18.9 E 1 2 1013.9 - 0.0 - - - - - - -
02/04:00am 19.4 E 1 2 1013.8 - 0.0 - - - - - - -
02/03:30am 19.3 CALM 0 0 1013.8 - 0.0 - - - - - - -
02/03:00am 19.1 CALM 0 0 1013.9 - 0.0 - - - - - - -
02/02:30am 19.3 E 1 2 1014.1 - 0.0 - - - - - - -
02/02:00am 19.5 CALM 0 3 1014.3 - 0.0 - - - - - - -
02/01:30am 19.9 CALM 0 0 1014.4 - 0.0 - - - - - - -
02/01:00am 20.1 ENE 1 2 1014.6 - 0.0 - - - - - - -
02/12:30am 20.3 CALM 0 0 1014.8 - 0.0 - - - - - - -
02/12:00am 20.4 ENE 1 2 1014.6 - 0.0 - - - - - - -
 
Date/Time
CST
Temp

°C
Wind Pressure Rain
since 9am
mm
Weather Cloud Vis
km
Sea
Height
m
Swell
Dir
 
Speed
knots
Gust
knots
hPa Trend Height
m
Period
s
Dir
01/11:30pm 20.5 NE 2 2 1014.6 - 0.0 - - - - - - -
01/11:00pm 20.7 NE 2 3 1014.6 - 0.0 - - - - - - -
01/10:30pm 20.8 CALM 0 1 1014.3 - 0.0 - - - - - - -
01/10:00pm 21.5 CALM 0 0 1013.9 - 0.0 - - - - - - -
01/09:30pm 22.1 CALM 0 0 1013.8 - 0.0 - - - - - - -
01/09:00pm 22.9 SW 1 2 1013.5 - 0.0 - - - - - - -
01/08:30pm 23.8 SSW 2 4 1013.0 - 0.0 - - - - - - -
01/08:00pm 24.3 WSW 2 4 1012.6 - 0.0 - - - - - - -
01/07:30pm 24.9 W 2 4 1012.2 - 0.0 - - - - - - -
01/07:00pm 25.4 WNW 2 6 1011.7 - 0.0 - - - - - - -
01/06:30pm 26.2 NNW 4 9 1011.6 - 0.0 - - - - - - -
01/06:00pm 27.2 NNW 4 8 1011.6 - 0.0 - - - - - - -
01/05:30pm 28.6 NNW 5 10 1011.4 - 0.0 - - - - - - -
01/05:00pm 29.6 NNW 5 9 1011.3 - 0.0 - - - - - - -
01/04:30pm 29.2 NNW 6 9 1011.2 - 0.0 - - - - - - -
01/04:00pm 29.4 NNW 7 11 1011.1 - 0.0 - - - - - - -
01/03:30pm 31.7 NNW 6 11 1011.1 - 0.0 - - - - - - -
01/03:00pm 32.2 NW 6 10 1011.0 - 0.0 - - - - - - -
01/02:30pm 32.4 WSW 3 6 1011.1 - 0.0 - - - - - - -
01/02:00pm 31.4 WNW 3 8 1011.7 - 0.0 - - - - - - -
01/01:30pm 30.9 WNW 4 8 1012.3 - 0.0 - - - - - - -
01/01:00pm 31.1 N 3 7 1012.7 - 0.0 - - - - - - -
01/12:30pm 32.6 NNE 6 13 1013.1 - 0.0 - - - - - - -
01/12:00pm 31.9 NE 5 11 1013.8 - 0.0 - - - - - - -
01/11:30am 31.3 ENE 7 13 1014.4 - 0.0 - - - - - - -
01/11:00am 30.2 E 8 13 1014.8 - 0.0 - - - - - - -
01/10:30am 29.6 ENE 7 11 1015.2 - 0.0 - - - - - - -
01/10:00am 28.7 E 5 10 1015.4 - 0.0 - - - - - - -
01/09:30am 25.9 S 2 4 1015.6 - 0.0 - - - - - - -
01/09:00am 24.2 S 2 3 1015.8 - 0.0 - - - - - - -
01/08:30am 21.5 S 2 3 1015.6 - 0.0 - - - - - - -
01/08:00am 19.0 SSE 1 2 1015.4 - 0.0 - - - - - - -
01/07:30am 16.9 CALM 0 0 1015.2 - 0.0 - - - - - - -
01/07:00am 16.4 CALM 0 0 1014.8 - 0.0 - - - - - - -
01/06:30am 16.5 CALM 0 0 1014.5 - 0.0 - - - - - - -
01/06:00am 16.2 CALM 0 0 1014.3 - 0.0 - - - - - - -
01/05:30am 16.3 CALM 0 0 1013.9 - 0.0 - - - - - - -
01/05:00am 16.7 CALM 0 0 1013.6 - 0.0 - - - - - - -
01/04:30am 16.9 CALM 0 0 1013.4 - 0.0 - - - - - - -
01/04:00am 17.1 NE 2 3 1013.1 - 0.0 - - - - - - -
01/03:30am 17.4 NE 1 2 1013.0 - 0.0 - - - - - - -
01/03:00am 17.6 ENE 1 2 1013.0 - 0.0 - - - - - - -
01/02:30am 17.8 ENE 1 3 1013.0 - 0.0 - - - - - - -
01/02:00am 18.0 CALM 0 0 1013.2 - 0.0 - - - - - - -
01/01:30am 18.2 NE 1 3 1013.5 - 0.0 - - - - - - -
01/01:00am 18.4 NE 2 3 1013.5 - 0.0 - - - - - - -
01/12:30am 18.4 CALM 0 0 1013.6 - 0.0 - - - - - - -
01/12:00am 18.6 ENE 2 2 1013.5 - 0.0 - - - - - - -
 
Date/Time
CST
Temp

°C
Wind Pressure Rain
since 9am
mm
Weather Cloud Vis
km
Sea
Height
m
Swell
Dir
 
Speed
knots
Gust
knots
hPa Trend Height
m
Period
s
Dir
31/11:30pm 19.1 ENE 1 2 1013.6 - 0.0 - - - - - - -
31/11:00pm 19.4 NE 2 3 1013.3 - 0.0 - - - - - - -
31/10:30pm 19.9 NE 1 3 1013.3 - 0.0 - - - - - - -
31/10:00pm 20.4 CALM 0 0 1013.3 - 0.0 - - - - - - -
31/09:30pm 20.8 CALM 0 0 1013.1 - 0.0 - - - - - - -
31/09:00pm 21.4 N 1 2 1012.7 - 0.0 - - - - - - -
31/08:30pm 22.0 N 2 4 1012.1 - 0.0 - - - - - - -
31/08:00pm 23.0 NNW 1 4 1011.7 - 0.0 - - - - - - -
31/07:30pm 24.2 NW 2 5 1011.3 - 0.0 - - - - - - -
31/07:00pm 24.9 NNW 5 8 1010.9 - 0.0 - - - - - - -
31/06:30pm 25.8 NW 4 7 1010.8 - 0.0 - - - - - - -
31/06:00pm 26.7 NNW 4 9 1010.6 - 0.0 - - - - - - -
31/05:30pm 28.4 NNW 6 11 1010.5 - 0.0 - - - - - - -
31/05:00pm 29.4 NW 6 11 1010.4 - 0.0 - - - - - - -
31/04:30pm 29.6 NNW 7 10 1010.3 - 0.0 - - - - - - -
31/04:00pm 30.1 NNW 8 15 1010.4 - 0.0 - - - - - - -
31/03:30pm 30.8 NNW 9 17 1010.4 - 0.0 - - - - - - -
31/03:00pm 32.5 SSW 8 12 1010.4 - 0.0 - - - - - - -
31/02:30pm 32.6 SSW 11 16 1010.5 - 0.0 - - - - - - -
31/02:00pm 32.1 SSW 11 15 1010.7 - 0.0 - - - - - - -
31/01:30pm 32.5 SSW 9 11 1011.2 - 0.0 - - - - - - -
31/01:00pm 32.5 SSW 6 10 1011.8 - 0.0 - - - - - - -
31/12:30pm 32.3 SE 6 13 1012.3 - 0.0 - - - - - - -
31/12:00pm 32.2 SE 5 11 1012.8 - 0.0 - - - - - - -
31/11:30am 31.8 E 6 9 1013.5 - 0.0 - - - - - - -
31/11:00am 30.4 ENE 7 12 1014.1 - 0.0 - - - - - - -
31/10:30am 28.8 E 8 13 1014.4 - 0.0 - - - - - - -
31/10:00am 28.4 E 4 8 1014.8 - 0.0 - - - - - - -
31/09:30am 26.9 E 4 8 1014.9 - 0.0 - - - - - - -
31/09:00am 24.4 SE 2 3 1014.8 - 0.0 - - - - - - -
31/08:30am 21.0 CALM 0 0 1014.7 - 0.0 - - - - - - -
31/08:00am 18.8 CALM 0 0 1014.3 - 0.0 - - - - - - -
31/07:30am 17.2 CALM 0 1 1014.1 - 0.0 - - - - - - -
31/07:00am 16.7 E 1 2 1013.8 - 0.0 - - - - - - -
31/06:30am 16.5 ENE 1 2 1013.5 - 0.0 - - - - - - -
31/06:00am 16.6 NE 2 3 1013.3 - 0.0 - - - - - - -
31/05:30am 16.9 ENE 2 3 1013.3 - 0.0 - - - - - - -
31/05:00am 17.2 ENE 1 1 1013.0 - 0.0 - - - - - - -
31/04:30am 17.5 E 1 2 1013.0 - 0.0 - - - - - - -
31/04:00am 17.4 ENE 1 2 1013.0 - 0.0 - - - - - - -
31/03:30am 17.7 CALM 0 0 1012.8 - 0.0 - - - - - - -
31/03:00am 17.8 CALM 0 0 1013.0 - 0.0 - - - - - - -
31/02:30am 17.9 CALM 0 0 1013.2 - 0.0 - - - - - - -
31/02:00am 18.2 ENE 1 2 1013.3 - 0.0 - - - - - - -
31/01:30am 18.2 CALM 0 2 1013.4 - 0.0 - - - - - - -
31/01:00am 18.1 CALM 0 0 1013.6 - 0.0 - - - - - - -
31/12:30am 18.3 CALM 0 0 1013.7 - 0.0 - - - - - - -
31/12:00am 18.4 CALM 0 0 1013.5 - 0.0 - - - - - - -
 
Date/Time
CST
Temp

°C
Wind Pressure Rain
since 9am
mm
Weather Cloud Vis
km
Sea
Height
m
Swell
Dir
 
Speed
knots
Gust
knots
hPa Trend Height
m
Period
s
Dir
30/11:30pm 18.7 CALM 0 0 1013.6 - 0.0 - - - - - - -
30/11:00pm 19.1 NE 1 2 1013.4 - 0.0 - - - - - - -
30/10:30pm 19.5 CALM 0 0 1013.3 - 0.0 - - - - - - -
30/10:00pm 19.9 CALM 0 0 1013.2 - 0.0 - - - - - - -
30/09:30pm 20.3 CALM 0 0 1013.2 - 0.0 - - - - - - -
30/09:00pm 21.2 CALM 0 0 1013.1 - 0.0 - - - - - - -
30/08:30pm 21.9 CALM 0 0 1012.8 - 0.0 - - - - - - -
30/08:00pm 22.7 N 1 2 1012.6 - 0.0 - - - - - - -
30/07:30pm 23.9 N 3 5 1012.3 - 0.0 - - - - - - -
30/07:00pm 25.2 WNW 3 8 1012.1 - 0.0 - - - - - - -
30/06:30pm 26.1 W 3 8 1011.8 - 0.0 - - - - - - -
30/06:00pm 27.3 W 3 8 1011.4 - 0.0 - - - - - - -
30/05:30pm 29.0 W 3 6 1011.1 - 0.0 - - - - - - -
30/05:00pm 29.9 WNW 3 7 1010.9 - 0.0 - - - - - - -
30/04:30pm 30.5 WNW 4 8 1010.7 - 0.0 - - - - - - -
30/04:00pm 31.7 NNW 4 8 1010.6 - 0.0 - - - - - - -
30/03:30pm 33.8 E 4 9 1010.7 - 0.0 - - - - - - -
30/03:00pm 34.1 ENE 4 8 1010.8 - 0.0 - - - - - - -
30/02:30pm 32.2 S 8 11 1011.1 - 0.0 - - - - - - -
30/02:00pm 31.9 S 6 10 1011.5 - 0.0 - - - - - - -
30/01:30pm 31.4 SW 8 15 1012.0 - 0.0 - - - - - - -
30/01:00pm 31.6 SW 5 11 1012.6 - 0.0 - - - - - - -
30/12:30pm 32.1 S 4 8 1013.0 - 0.0 - - - - - - -
30/12:00pm 32.3 ESE 5 8 1013.8 - 0.0 - - - - - - -
30/11:30am 30.9 ESE 6 10 1014.5 - 0.0 - - - - - - -
30/11:00am 30.1 ESE 7 12 1015.2 - 0.0 - - - - - - -
30/10:30am 29.9 E 4 9 1015.5 - 0.0 - - - - - - -
30/10:00am 27.8 S 4 6 1015.7 - 0.0 - - - - - - -
30/09:30am 25.8 S 3 5 1015.6 - 0.0 - - - - - - -
30/09:00am 24.0 SSE 2 2 1015.6 - 0.0 - - - - - - -
30/08:30am 20.7 SE 2 3 1015.5 - 0.0 - - - - - - -
30/08:00am 19.0 SSE 2 3 1015.3 - 0.0 - - - - - - -
30/07:30am 17.5 SE 2 3 1015.0 - 0.0 - - - - - - -

Other Formats:

Comma delimited format used in spreadsheet applications
http://www.bom.gov.au/fwo/IDD60701/IDD60701.94119.axf

JavaScript Object Notation format (JSON) in row-major order
http://www.bom.gov.au/fwo/IDD60701/IDD60701.94119.json